createdAt,value
2018-01-10T00:00:25.699Z,101018.62
2018-01-10T00:01:30.194Z,101012.98
2018-01-10T00:02:34.386Z,101006.43
2018-01-10T00:03:38.497Z,101020.98
2018-01-10T00:04:42.592Z,101002.98
2018-01-10T00:05:47.180Z,101005.72
2018-01-10T00:06:51.357Z,101004.05
2018-01-10T00:07:55.601Z,101008.07
2018-01-10T00:08:59.803Z,101015.63
2018-01-10T00:10:03.955Z,101013.94
2018-01-10T00:11:08.195Z,101017.55
2018-01-10T00:12:12.814Z,101019.81
2018-01-10T00:13:17.339Z,101019.83
2018-01-10T00:14:21.569Z,101020.70
2018-01-10T00:15:25.916Z,101015.41
2018-01-10T00:16:30.864Z,101024.66
2018-01-10T00:17:35.411Z,101018.50
2018-01-10T00:18:39.636Z,101017.64
2018-01-10T00:19:43.765Z,101021.16
2018-01-10T00:20:47.934Z,101015.85
2018-01-10T00:21:52.099Z,101018.02
2018-01-10T00:22:56.362Z,101021.05
2018-01-10T00:24:00.892Z,101021.09
2018-01-10T00:25:05.144Z,101024.66
2018-01-10T00:26:09.330Z,101022.00
2018-01-10T00:27:13.482Z,101027.73
2018-01-10T00:28:17.737Z,101028.64
2018-01-10T00:29:22.013Z,101024.66
2018-01-10T00:30:27.885Z,101022.45
2018-01-10T00:31:32.022Z,101019.80
2018-01-10T00:32:36.220Z,101022.41
2018-01-10T00:33:40.346Z,101026.36
2018-01-10T00:34:44.499Z,101026.32
2018-01-10T00:35:48.643Z,101029.41
2018-01-10T00:36:53.084Z,101018.34
2018-01-10T00:37:57.317Z,101017.51
2018-01-10T00:39:01.566Z,101027.20
2018-01-10T00:40:05.697Z,101025.02
2018-01-10T00:41:09.833Z,101027.16
2018-01-10T00:42:13.937Z,101025.39
2018-01-10T00:43:18.054Z,101024.92
2018-01-10T00:44:22.905Z,101021.38
2018-01-10T00:45:27.541Z,101018.22
2018-01-10T00:46:32.604Z,101024.73
2018-01-10T00:47:36.749Z,101019.90
2018-01-10T00:48:40.922Z,101021.22
2018-01-10T00:49:45.466Z,101015.97
2018-01-10T00:50:49.609Z,101015.55
2018-01-10T00:51:53.767Z,101017.70
2018-01-10T00:52:57.941Z,101018.58
2018-01-10T00:54:02.065Z,101013.73
2018-01-10T00:55:06.175Z,101015.02
2018-01-10T00:56:10.742Z,101013.73
2018-01-10T00:57:14.952Z,101011.98
2018-01-10T00:58:19.197Z,101009.89
2018-01-10T00:59:23.428Z,101005.95
2018-01-10T01:00:28.000Z,101010.80
2018-01-10T01:01:33.141Z,101009.94
2018-01-10T01:02:37.683Z,101003.37
2018-01-10T01:03:41.837Z,100998.58
2018-01-10T01:04:45.938Z,101008.66
2018-01-10T01:05:50.141Z,101004.32
2018-01-10T01:06:54.313Z,101011.42
2018-01-10T01:07:58.808Z,101011.00
2018-01-10T01:09:03.024Z,101012.77
2018-01-10T01:10:07.149Z,101013.63
2018-01-10T01:11:12.201Z,101014.43
2018-01-10T01:12:16.332Z,101014.36
2018-01-10T01:13:20.580Z,101022.28
2018-01-10T01:14:25.048Z,101021.41
2018-01-10T01:15:29.784Z,101019.18
2018-01-10T01:16:34.389Z,101021.80
2018-01-10T01:17:38.648Z,101020.89
2018-01-10T01:18:42.751Z,101023.91
2018-01-10T01:19:46.997Z,101021.69
2018-01-10T01:20:51.461Z,101018.20
2018-01-10T01:21:55.558Z,101018.61
2018-01-10T01:22:59.751Z,101010.22
2018-01-10T01:24:03.864Z,101010.66
2018-01-10T01:25:08.204Z,101010.63
2018-01-10T01:26:12.407Z,101014.11
2018-01-10T01:27:17.816Z,101003.93
2018-01-10T01:28:22.047Z,101001.36
2018-01-10T01:29:26.188Z,101014.99
2018-01-10T01:30:30.478Z,101007.22
2018-01-10T01:31:34.687Z,101005.07
2018-01-10T01:32:38.819Z,101009.50
2018-01-10T01:33:42.966Z,101014.30
2018-01-10T01:34:47.146Z,101014.85
2018-01-10T01:35:51.372Z,101021.94
2018-01-10T01:36:55.537Z,101015.40
2018-01-10T01:38:00.221Z,101015.45
2018-01-10T01:39:04.600Z,101019.89
2018-01-10T01:40:10.204Z,101023.87
2018-01-10T01:41:15.385Z,101010.64
2018-01-10T01:42:19.604Z,101019.00
2018-01-10T01:43:23.846Z,101020.30
2018-01-10T01:44:28.900Z,101022.08
2018-01-10T01:45:33.340Z,101027.77
2018-01-10T01:46:37.846Z,101021.59
2018-01-10T01:47:41.904Z,101029.11
2018-01-10T01:48:46.115Z,101031.73
2018-01-10T01:49:50.170Z,101030.39
2018-01-10T01:50:54.395Z,101027.74
2018-01-10T01:51:58.568Z,101027.59
2018-01-10T01:53:02.981Z,101034.66
2018-01-10T01:54:07.119Z,101034.22
2018-01-10T01:55:12.291Z,101032.92
2018-01-10T01:56:16.506Z,101031.55
2018-01-10T01:57:20.706Z,101027.98
2018-01-10T01:58:25.180Z,101032.75
2018-01-10T01:59:30.457Z,101030.58
2018-01-10T02:00:34.877Z,101029.14
2018-01-10T02:01:39.028Z,101024.27
2018-01-10T02:02:43.153Z,101022.88
2018-01-10T02:03:47.309Z,101020.64
2018-01-10T02:04:51.709Z,101013.57
2018-01-10T02:05:55.992Z,101015.73
2018-01-10T02:07:00.087Z,101010.83
2018-01-10T02:08:04.432Z,101014.05
2018-01-10T02:09:08.556Z,101010.53
2018-01-10T02:10:12.972Z,101009.51
2018-01-10T02:11:17.388Z,101013.06
2018-01-10T02:12:21.654Z,101013.27
2018-01-10T02:13:26.924Z,101012.88
2018-01-10T02:14:31.089Z,101008.98
2018-01-10T02:15:35.597Z,101007.58
2018-01-10T02:16:39.685Z,101010.69
2018-01-10T02:17:44.196Z,101002.33
2018-01-10T02:18:48.358Z,101011.06
2018-01-10T02:19:52.468Z,101004.47
2018-01-10T02:20:56.631Z,101012.83
2018-01-10T02:22:00.766Z,101003.97
2018-01-10T02:23:04.893Z,101004.84
2018-01-10T02:24:09.101Z,101000.81
2018-01-10T02:25:13.240Z,101006.94
2018-01-10T02:26:17.436Z,101001.22
2018-01-10T02:27:21.618Z,100996.34
2018-01-10T02:28:25.720Z,100998.00
2018-01-10T02:29:29.825Z,100995.77
2018-01-10T02:30:34.481Z,100995.55
2018-01-10T02:31:38.606Z,100995.91
2018-01-10T02:32:42.706Z,100996.20
2018-01-10T02:33:46.921Z,101000.15
2018-01-10T02:34:51.036Z,100997.95
2018-01-10T02:35:55.172Z,100998.73
2018-01-10T02:36:59.637Z,100998.24
2018-01-10T02:38:03.762Z,100990.58
2018-01-10T02:39:08.542Z,100991.06
2018-01-10T02:40:12.605Z,100988.78
2018-01-10T02:41:16.808Z,100990.09
2018-01-10T02:42:29.922Z,100990.67
2018-01-10T02:43:34.007Z,100993.40
2018-01-10T02:44:38.168Z,100992.16
2018-01-10T02:45:42.473Z,100993.96
2018-01-10T02:46:46.570Z,100997.00
2018-01-10T02:47:50.743Z,100991.64
2018-01-10T02:48:55.156Z,100992.42
2018-01-10T02:49:59.261Z,100991.02
2018-01-10T02:51:03.352Z,100994.58
2018-01-10T02:52:07.424Z,100990.67
2018-01-10T02:53:11.606Z,100992.42
2018-01-10T02:54:15.725Z,100987.02
2018-01-10T02:55:19.905Z,100984.73
2018-01-10T02:56:24.018Z,100994.24
2018-01-10T02:57:28.161Z,100994.23
2018-01-10T02:58:33.213Z,100994.45
2018-01-10T02:59:37.350Z,100992.20
2018-01-10T03:00:42.093Z,100996.14
2018-01-10T03:01:46.196Z,100995.21
2018-01-10T03:02:50.428Z,100990.48
2018-01-10T03:03:54.664Z,100986.92
2018-01-10T03:04:58.802Z,100998.73
2018-01-10T03:06:03.349Z,100992.20
2018-01-10T03:07:07.969Z,100991.94
2018-01-10T03:08:12.070Z,100991.84
2018-01-10T03:09:16.168Z,100997.91
2018-01-10T03:10:20.548Z,100997.22
2018-01-10T03:11:24.775Z,100997.30
2018-01-10T03:12:30.543Z,100997.80
2018-01-10T03:13:34.937Z,100998.67
2018-01-10T03:14:39.198Z,100999.95
2018-01-10T03:15:43.989Z,100994.14
2018-01-10T03:16:48.660Z,100995.55
2018-01-10T03:17:52.745Z,100996.43
2018-01-10T03:18:57.077Z,100997.66
2018-01-10T03:20:01.493Z,100997.52
2018-01-10T03:21:05.872Z,100993.56
2018-01-10T03:22:10.545Z,100998.30
2018-01-10T03:23:14.653Z,100997.75
2018-01-10T03:24:18.829Z,100994.83
2018-01-10T03:25:22.936Z,100996.48
2018-01-10T03:26:27.016Z,101001.81
2018-01-10T03:27:31.764Z,100997.52
2018-01-10T03:28:35.978Z,101001.52
2018-01-10T03:29:40.075Z,100992.73
2018-01-10T03:30:44.657Z,101003.11
2018-01-10T03:31:48.776Z,100992.28
2018-01-10T03:32:52.859Z,100991.88
2018-01-10T03:33:57.013Z,100988.84
2018-01-10T03:35:01.134Z,100999.35
2018-01-10T03:36:05.277Z,100987.84
2018-01-10T03:37:09.848Z,100990.00
2018-01-10T03:39:35.092Z,100984.91
2018-01-10T03:40:39.612Z,100980.11
2018-01-10T03:41:43.690Z,100979.61
2018-01-10T03:42:47.793Z,100983.93
2018-01-10T03:43:51.884Z,100986.53
2018-01-10T03:44:56.086Z,100991.84
2018-01-10T03:46:00.421Z,100983.41
2018-01-10T03:47:04.538Z,100981.94
2018-01-10T03:48:08.742Z,100987.69
2018-01-10T03:49:12.838Z,100986.41
2018-01-10T03:50:17.321Z,100978.94
2018-01-10T03:51:21.504Z,100986.81
2018-01-10T03:52:25.612Z,100985.97
2018-01-10T03:53:30.305Z,100984.97
2018-01-10T03:54:34.689Z,100984.52
2018-01-10T03:55:38.820Z,100982.84
2018-01-10T03:56:43.218Z,100988.95
2018-01-10T03:57:47.809Z,100988.92
2018-01-10T03:58:52.157Z,100981.44
2018-01-10T03:59:56.332Z,100978.38
2018-01-10T04:01:00.741Z,100978.81
2018-01-10T04:02:05.880Z,100976.97
2018-01-10T04:03:10.494Z,100981.88
2018-01-10T04:04:15.102Z,100978.73
2018-01-10T04:05:19.224Z,100985.84
2018-01-10T04:06:23.288Z,100981.49
2018-01-10T04:07:28.954Z,100978.41
2018-01-10T04:08:33.048Z,100981.05
2018-01-10T04:09:38.552Z,100984.17
2018-01-10T04:10:42.617Z,100981.09
2018-01-10T04:11:46.716Z,100984.12
2018-01-10T04:12:50.875Z,100981.09
2018-01-10T04:13:54.958Z,100982.41
2018-01-10T04:14:59.391Z,100975.34
2018-01-10T04:16:04.027Z,100976.66
2018-01-10T04:17:08.255Z,100983.73
2018-01-10T04:18:12.895Z,100980.66
2018-01-10T04:19:17.071Z,100980.61
2018-01-10T04:20:21.399Z,100976.26
2018-01-10T04:21:26.355Z,100977.09
2018-01-10T04:22:31.261Z,100978.02
2018-01-10T04:23:35.448Z,100974.94
2018-01-10T04:24:39.596Z,100970.62
2018-01-10T04:25:43.744Z,100974.14
2018-01-10T04:26:47.829Z,100974.62
2018-01-10T04:27:52.602Z,100972.42
2018-01-10T04:28:56.681Z,100971.98
2018-01-10T04:30:00.898Z,100974.62
2018-01-10T04:31:05.308Z,100979.89
2018-01-10T04:32:10.052Z,100974.14
2018-01-10T04:33:14.102Z,100978.09
2018-01-10T04:34:18.263Z,100974.14
2018-01-10T04:35:22.383Z,100974.62
2018-01-10T04:36:26.420Z,100970.66
2018-01-10T04:38:43.591Z,100978.14
2018-01-10T04:39:47.740Z,100980.34
2018-01-10T04:40:52.785Z,100975.50
2018-01-10T04:41:56.901Z,100964.51
2018-01-10T04:43:01.107Z,100973.74
2018-01-10T04:44:05.179Z,100968.47
2018-01-10T04:45:09.670Z,100970.30
2018-01-10T04:46:14.332Z,100968.14
2018-01-10T04:47:18.742Z,100967.26
2018-01-10T04:48:22.962Z,100969.45
2018-01-10T04:49:27.666Z,100964.22
2018-01-10T04:50:31.779Z,100967.29
2018-01-10T04:51:35.894Z,100969.09
2018-01-10T04:52:40.067Z,100972.16
2018-01-10T04:53:44.482Z,100967.33
2018-01-10T04:54:48.658Z,100966.48
2018-01-10T04:55:52.754Z,100966.48
2018-01-10T04:56:58.071Z,100965.13
2018-01-10T04:58:02.252Z,100969.09
2018-01-10T04:59:06.347Z,100964.28
2018-01-10T05:00:11.204Z,100969.55
2018-01-10T05:01:15.738Z,100972.16
2018-01-10T05:02:19.870Z,100965.09
2018-01-10T05:03:24.084Z,100966.85
2018-01-10T05:04:29.319Z,100964.66
2018-01-10T05:05:33.526Z,100975.23
2018-01-10T05:06:37.910Z,100973.48
2018-01-10T05:07:41.973Z,100972.60
2018-01-10T05:08:46.158Z,100973.08
2018-01-10T05:09:50.232Z,100978.38
2018-01-10T05:10:54.507Z,100977.95
2018-01-10T05:11:58.577Z,100977.51
2018-01-10T05:13:02.747Z,100973.11
2018-01-10T05:14:06.845Z,100977.50
2018-01-10T05:15:12.158Z,100976.22
2018-01-10T05:16:16.320Z,100976.16
2018-01-10T05:17:20.526Z,100973.48
2018-01-10T05:18:24.649Z,100976.53
2018-01-10T05:19:29.265Z,100976.16
2018-01-10T05:20:33.365Z,100972.16
2018-01-10T05:21:37.456Z,100978.32
2018-01-10T05:22:41.570Z,100978.35
2018-01-10T05:23:45.731Z,100978.39
2018-01-10T05:24:49.919Z,100978.35
2018-01-10T05:25:54.434Z,100972.60
2018-01-10T05:26:58.509Z,100972.16
2018-01-10T05:28:02.640Z,100978.76
2018-01-10T05:29:06.890Z,100977.44
2018-01-10T05:30:14.677Z,100977.91
2018-01-10T05:31:18.836Z,100975.31
2018-01-10T05:32:23.257Z,100975.37
2018-01-10T05:33:27.469Z,100969.66
2018-01-10T05:34:32.557Z,100977.57
2018-01-10T05:35:38.423Z,100973.61
2018-01-10T05:36:42.534Z,100974.90
2018-01-10T05:37:46.632Z,100975.27
2018-01-10T05:38:50.735Z,100978.35
2018-01-10T05:39:55.435Z,100979.23
2018-01-10T05:40:59.629Z,100973.08
2018-01-10T05:42:03.764Z,100973.08
2018-01-10T05:43:07.859Z,100971.28
2018-01-10T05:44:12.092Z,100970.84
2018-01-10T05:45:17.075Z,100969.52
2018-01-10T05:46:21.227Z,100972.60
2018-01-10T05:47:25.350Z,100964.69
2018-01-10T05:48:32.173Z,100967.77
2018-01-10T05:49:36.408Z,100959.37
2018-01-10T05:50:40.527Z,100958.02
2018-01-10T05:51:45.022Z,100960.66
2018-01-10T05:52:49.218Z,100961.98
2018-01-10T05:53:59.845Z,100961.55
2018-01-10T05:55:04.019Z,100955.80
2018-01-10T05:56:08.213Z,100962.39
2018-01-10T05:57:13.354Z,100965.94
2018-01-10T05:58:17.825Z,100964.14
2018-01-10T05:59:21.995Z,100963.30
2018-01-10T06:00:27.932Z,100962.38
2018-01-10T06:01:32.088Z,100964.14
2018-01-10T06:02:36.302Z,100961.50
2018-01-10T06:03:40.693Z,100963.30
2018-01-10T06:04:44.800Z,100961.98
2018-01-10T06:05:48.964Z,100957.98
2018-01-10T06:06:53.066Z,100958.87
2018-01-10T06:07:57.176Z,100961.50
2018-01-10T06:09:02.098Z,100957.11
2018-01-10T06:10:06.513Z,100957.95
2018-01-10T06:11:11.433Z,100960.19
2018-01-10T06:12:16.458Z,100965.02
2018-01-10T06:13:20.691Z,100965.97
2018-01-10T06:14:24.838Z,100961.13
2018-01-10T06:15:29.516Z,100965.56
2018-01-10T06:16:33.695Z,100962.89
2018-01-10T06:17:37.851Z,100971.72
2018-01-10T06:18:41.992Z,100967.80
2018-01-10T06:19:46.136Z,100974.84
2018-01-10T06:20:50.317Z,100973.55
2018-01-10T06:21:54.744Z,100977.54
2018-01-10T06:22:58.849Z,100981.52
2018-01-10T06:24:03.024Z,100977.59
2018-01-10T06:25:07.127Z,100979.36
2018-01-10T06:26:12.393Z,100978.48
2018-01-10T06:27:17.368Z,100976.69
2018-01-10T06:28:21.876Z,100978.04
2018-01-10T06:29:26.481Z,100973.67
2018-01-10T06:30:31.951Z,100978.98
2018-01-10T06:31:36.607Z,100975.90
2018-01-10T06:32:40.972Z,100981.20
2018-01-10T06:33:45.531Z,100979.85
2018-01-10T06:34:49.645Z,100976.30
2018-01-10T06:35:53.797Z,100980.30
2018-01-10T06:36:57.993Z,100977.22
2018-01-10T06:38:02.190Z,100976.77
2018-01-10T06:39:06.722Z,100974.59
2018-01-10T06:40:11.430Z,100978.59
2018-01-10T06:41:16.689Z,100983.87
2018-01-10T06:42:20.955Z,100985.63
2018-01-10T06:43:25.035Z,100976.39
2018-01-10T06:44:30.112Z,100979.91
2018-01-10T06:45:34.505Z,100982.11
2018-01-10T06:46:39.178Z,100976.85
2018-01-10T06:47:43.588Z,100983.02
2018-01-10T06:48:47.670Z,100977.27
2018-01-10T06:49:51.742Z,100978.61
2018-01-10T06:50:55.935Z,100978.59
2018-01-10T06:52:00.022Z,100976.39
2018-01-10T06:53:04.578Z,100981.26
2018-01-10T06:54:08.714Z,100980.41
2018-01-10T06:55:13.529Z,100979.08
2018-01-10T06:56:17.631Z,100978.17
2018-01-10T06:57:22.945Z,100972.03
2018-01-10T06:58:31.352Z,100977.75
2018-01-10T06:59:35.485Z,100979.95
2018-01-10T07:00:40.021Z,100977.31
2018-01-10T07:01:45.155Z,100977.29
2018-01-10T07:02:49.265Z,100975.09
2018-01-10T07:03:53.333Z,100975.09
2018-01-10T07:04:57.466Z,100974.22
2018-01-10T07:06:02.007Z,100970.23
2018-01-10T07:07:06.226Z,100972.40
2018-01-10T07:08:11.391Z,100975.05
2018-01-10T07:09:16.265Z,100979.85
2018-01-10T07:10:20.501Z,100975.48
2018-01-10T07:11:24.682Z,100976.36
2018-01-10T07:12:29.686Z,100976.36
2018-01-10T07:13:33.776Z,100981.20
2018-01-10T07:14:38.186Z,100979.87
2018-01-10T07:15:42.685Z,100980.77
2018-01-10T07:16:47.045Z,100977.68
2018-01-10T07:17:51.695Z,100978.59
2018-01-10T07:18:55.954Z,100984.72
2018-01-10T07:20:00.376Z,100982.55
2018-01-10T07:21:04.625Z,100981.67
2018-01-10T07:22:08.741Z,100978.15
2018-01-10T07:23:13.228Z,100986.07
2018-01-10T07:24:17.329Z,100981.23
2018-01-10T07:25:21.522Z,100986.09
2018-01-10T07:26:25.744Z,100983.42
2018-01-10T07:27:30.461Z,100987.39
2018-01-10T07:28:34.582Z,100989.15
2018-01-10T07:29:38.953Z,100985.63
2018-01-10T07:30:43.403Z,100987.83
2018-01-10T07:31:47.606Z,100986.89
2018-01-10T07:32:51.716Z,100990.44
2018-01-10T07:33:55.797Z,100986.48
2018-01-10T07:34:59.953Z,100985.63
2018-01-10T07:36:04.082Z,100987.39
2018-01-10T07:37:08.513Z,100986.92
2018-01-10T07:38:13.791Z,100981.66
2018-01-10T07:39:17.956Z,100988.73
2018-01-10T07:40:22.123Z,100986.09
2018-01-10T07:41:26.319Z,100985.21
2018-01-10T07:42:31.450Z,100989.17
2018-01-10T07:43:35.868Z,100989.56
2018-01-10T07:44:40.076Z,100990.89
2018-01-10T07:45:44.617Z,100990.50
2018-01-10T07:46:48.853Z,100997.07
2018-01-10T07:47:52.988Z,100999.30
2018-01-10T07:48:57.383Z,100999.73
2018-01-10T07:50:01.606Z,100999.84
2018-01-10T07:51:05.736Z,100992.84
2018-01-10T07:52:09.841Z,100997.67
2018-01-10T07:53:13.942Z,100998.14
2018-01-10T07:54:18.076Z,100998.13
2018-01-10T07:55:22.328Z,101002.16
2018-01-10T07:56:26.812Z,101001.71
2018-01-10T07:57:31.547Z,100999.93
2018-01-10T07:58:35.652Z,101000.39
2018-01-10T07:59:39.892Z,100996.42
2018-01-10T08:00:44.411Z,100999.92
2018-01-10T08:01:48.529Z,101003.89
2018-01-10T08:02:52.914Z,100999.91
2018-01-10T08:04:58.309Z,101003.47
2018-01-10T08:06:02.435Z,101004.80
2018-01-10T08:07:09.909Z,100993.81
2018-01-10T08:08:14.350Z,101003.05
2018-01-10T08:09:18.560Z,101003.08
2018-01-10T08:10:22.816Z,100998.23
2018-01-10T08:11:26.912Z,101004.42
2018-01-10T08:12:31.015Z,101000.48
2018-01-10T08:13:35.109Z,100996.08
2018-01-10T08:14:39.237Z,101004.82
2018-01-10T08:15:43.449Z,101000.88
2018-01-10T08:16:47.566Z,100993.42
2018-01-10T08:17:51.684Z,100992.13
2018-01-10T08:18:55.811Z,100990.78
2018-01-10T08:20:00.269Z,100996.06
2018-01-10T08:21:04.464Z,100993.88
2018-01-10T08:22:08.598Z,100993.89
2018-01-10T08:23:13.334Z,100993.01
2018-01-10T08:24:17.480Z,101004.03
2018-01-10T08:25:21.929Z,100997.84
2018-01-10T08:26:26.981Z,101004.47
2018-01-10T08:27:31.113Z,100999.19
2018-01-10T08:28:35.218Z,101000.08
2018-01-10T08:29:40.402Z,101001.84
2018-01-10T08:30:44.862Z,101000.08
2018-01-10T08:31:49.129Z,101010.66
2018-01-10T08:32:53.645Z,101010.27
2018-01-10T08:33:58.814Z,101008.06
2018-01-10T08:35:03.063Z,101007.63
2018-01-10T08:36:07.144Z,101008.50
2018-01-10T08:37:12.456Z,101009.39
2018-01-10T08:38:16.546Z,101006.30
2018-01-10T08:39:20.682Z,101008.08
2018-01-10T08:40:24.821Z,101012.91
2018-01-10T08:41:29.553Z,101010.22
2018-01-10T08:42:33.720Z,101015.96
2018-01-10T08:43:38.178Z,101007.58
2018-01-10T08:44:42.346Z,101008.02
2018-01-10T08:45:46.892Z,101006.69
2018-01-10T08:46:51.097Z,101011.09
2018-01-10T08:47:55.323Z,101004.92
2018-01-10T08:48:59.474Z,101011.97
2018-01-10T08:50:03.646Z,101003.60
2018-01-10T08:51:07.765Z,101002.70
2018-01-10T08:52:11.992Z,100999.17
2018-01-10T08:53:17.060Z,101004.48
2018-01-10T08:54:21.219Z,101003.59
2018-01-10T08:55:25.697Z,100996.56
2018-01-10T08:56:30.854Z,100998.75
2018-01-10T08:57:34.989Z,100993.91
2018-01-10T08:58:39.144Z,100995.67
2018-01-10T08:59:43.291Z,100993.92
2018-01-10T09:00:48.087Z,100999.20
2018-01-10T09:01:52.585Z,100995.24
2018-01-10T09:02:56.822Z,100993.91
2018-01-10T09:04:01.037Z,100997.92
2018-01-10T09:05:05.293Z,101001.88
2018-01-10T09:06:09.485Z,101000.13
2018-01-10T09:07:15.099Z,100995.70
2018-01-10T09:08:19.236Z,100996.59
2018-01-10T09:09:23.450Z,100995.28
2018-01-10T09:10:27.675Z,100998.80
2018-01-10T09:11:32.879Z,101001.45
2018-01-10T09:12:37.027Z,101000.58
2018-01-10T09:13:41.450Z,101002.78
2018-01-10T09:14:45.542Z,100999.69
2018-01-10T09:15:49.775Z,101002.34
2018-01-10T09:16:53.909Z,100992.61
2018-01-10T09:17:58.072Z,101004.53
2018-01-10T09:19:02.358Z,101000.11
2018-01-10T09:20:06.505Z,101002.31
2018-01-10T09:21:10.656Z,100995.27
2018-01-10T09:22:15.681Z,101001.89
2018-01-10T09:23:19.783Z,101002.33
2018-01-10T09:24:23.889Z,101000.56
2018-01-10T09:25:28.079Z,100994.81
2018-01-10T09:26:33.137Z,100999.22
2018-01-10T09:27:37.353Z,100995.26
2018-01-10T09:28:41.586Z,100995.69
2018-01-10T09:29:45.725Z,100997.89
2018-01-10T09:30:49.965Z,101004.89
2018-01-10T09:31:54.292Z,100999.59
2018-01-10T09:32:59.017Z,100996.47
2018-01-10T09:34:03.416Z,101000.44
2018-01-10T09:35:08.022Z,101000.41
2018-01-10T09:36:12.818Z,100988.84
2018-01-10T09:37:16.949Z,100995.79
2018-01-10T09:38:21.190Z,100989.91
2018-01-10T09:39:25.699Z,100998.68
2018-01-10T09:40:32.994Z,100995.18
2018-01-10T09:41:37.212Z,101000.49
2018-01-10T09:42:41.390Z,100991.69
2018-01-10T09:43:45.597Z,100994.83
2018-01-10T09:44:49.792Z,100993.48
2018-01-10T09:45:54.740Z,101001.44
2018-01-10T09:46:58.890Z,100988.09
2018-01-10T09:48:03.382Z,100995.16
2018-01-10T09:49:07.581Z,100993.82
2018-01-10T09:50:11.760Z,100995.16
2018-01-10T09:51:15.894Z,100995.27
2018-01-10T09:52:20.494Z,101000.49
2018-01-10T09:53:24.674Z,100995.94
2018-01-10T09:54:28.917Z,100997.20
2018-01-10T09:55:33.424Z,100995.24
2018-01-10T09:56:37.628Z,100996.44
2018-01-10T09:57:41.988Z,101000.83
2018-01-10T09:58:46.563Z,100995.11
2018-01-10T09:59:50.703Z,100998.70
2018-01-10T10:00:55.250Z,100999.97
2018-01-10T10:01:59.457Z,100998.22
2018-01-10T10:03:03.700Z,100991.61
2018-01-10T10:04:07.853Z,100997.70
2018-01-10T10:05:13.014Z,101000.80
2018-01-10T10:06:17.258Z,100999.44
2018-01-10T10:07:21.500Z,100996.25
2018-01-10T10:08:25.644Z,100995.75
2018-01-10T10:09:29.761Z,100992.19
2018-01-10T10:10:34.284Z,100995.61
2018-01-10T10:11:38.377Z,100991.10
2018-01-10T10:12:42.513Z,100990.55
2018-01-10T10:13:46.679Z,100990.93
2018-01-10T10:14:50.811Z,100992.04
2018-01-10T10:15:55.395Z,100988.95
2018-01-10T10:16:59.988Z,100981.67
2018-01-10T10:18:04.698Z,100976.18
2018-01-10T10:19:09.043Z,100978.64
2018-01-10T10:20:13.993Z,100974.44
2018-01-10T10:21:18.164Z,100982.45
2018-01-10T10:22:22.364Z,100978.92
2018-01-10T10:23:26.978Z,100982.13
2018-01-10T10:24:31.140Z,100985.34
2018-01-10T10:25:35.301Z,100992.30
2018-01-10T10:26:39.514Z,100983.47
2018-01-10T10:27:44.465Z,100980.52
2018-01-10T10:28:48.746Z,100984.23
2018-01-10T10:29:52.939Z,100985.58
2018-01-10T10:30:57.418Z,100977.99
2018-01-10T10:32:01.629Z,100981.96
2018-01-10T10:33:05.827Z,100981.63
2018-01-10T10:34:11.173Z,100983.03
2018-01-10T10:35:16.184Z,100986.66
2018-01-10T10:36:20.548Z,100981.46
2018-01-10T10:37:25.002Z,100979.31
2018-01-10T10:38:30.205Z,100984.64
2018-01-10T10:39:34.477Z,100977.98
2018-01-10T10:40:38.584Z,100974.45
2018-01-10T10:45:59.195Z,100984.00
2018-01-10T10:50:07.780Z,100972.87
2018-01-10T10:51:11.991Z,100968.90
2018-01-10T10:52:16.087Z,100972.91
2018-01-10T10:53:20.203Z,100964.11
2018-01-10T10:54:24.552Z,100967.23
2018-01-10T10:55:28.854Z,100972.48
2018-01-10T10:56:32.965Z,100964.45
2018-01-10T10:57:37.251Z,100971.11
2018-01-10T10:58:41.489Z,100967.61
2018-01-10T10:59:45.634Z,100967.12
2018-01-10T11:00:50.178Z,100962.72
2018-01-10T11:01:54.582Z,100960.11
2018-01-10T11:02:58.778Z,100961.02
2018-01-10T11:04:02.992Z,100960.70
2018-01-10T11:05:07.148Z,100958.53
2018-01-10T11:06:11.297Z,100959.88
2018-01-10T11:07:15.434Z,100959.01
2018-01-10T11:08:20.066Z,100961.66
2018-01-10T11:09:24.270Z,100960.75
2018-01-10T11:10:28.474Z,100959.87
2018-01-10T11:11:32.637Z,100954.11
2018-01-10T11:12:36.789Z,100954.55
2018-01-10T11:13:41.031Z,100957.22
2018-01-10T11:14:45.586Z,100955.58
2018-01-10T11:15:50.068Z,100950.30
2018-01-10T11:16:54.338Z,100951.18
2018-01-10T11:17:59.257Z,100954.70
2018-01-10T11:19:03.871Z,100951.15
2018-01-10T11:20:08.084Z,100951.16
2018-01-10T11:21:12.219Z,100952.95
2018-01-10T11:22:16.357Z,100953.02
2018-01-10T11:23:20.630Z,100959.63
2018-01-10T11:24:24.879Z,100950.79
2018-01-10T11:25:29.682Z,100953.91
2018-01-10T11:26:33.829Z,100951.20
2018-01-10T11:27:38.277Z,100950.31
2018-01-10T11:28:43.857Z,100947.70
2018-01-10T11:31:00.233Z,100949.02
2018-01-10T11:32:04.673Z,100949.44
2018-01-10T11:33:09.107Z,100948.92
2018-01-10T11:34:14.273Z,100949.35
2018-01-10T11:35:18.476Z,100951.55
2018-01-10T11:36:22.674Z,100944.02
2018-01-10T11:37:26.908Z,100947.54
2018-01-10T11:38:31.861Z,100940.92
2018-01-10T11:39:36.136Z,100944.01
2018-01-10T11:40:40.290Z,100945.30
2018-01-10T11:41:44.489Z,100943.50
2018-01-10T11:42:48.748Z,100943.89
2018-01-10T11:43:52.919Z,100947.35
2018-01-10T11:44:57.080Z,100945.05
2018-01-10T11:46:01.685Z,100951.55
2018-01-10T11:47:05.829Z,100955.53
2018-01-10T11:48:10.039Z,100947.16
2018-01-10T11:49:14.193Z,100950.30
2018-01-10T11:50:18.812Z,100948.54
2018-01-10T11:51:23.869Z,100948.10
2018-01-10T11:52:28.109Z,100949.84
2018-01-10T11:53:32.442Z,100956.39
2018-01-10T11:54:37.772Z,100953.73
2018-01-10T11:55:41.976Z,100958.59
2018-01-10T11:56:46.566Z,100947.53
2018-01-10T11:57:51.062Z,100940.98
2018-01-10T11:58:55.204Z,100950.31
2018-01-10T12:00:00.385Z,100947.19
2018-01-10T12:01:04.896Z,100946.82
2018-01-10T12:02:09.121Z,100947.73
2018-01-10T12:03:13.606Z,100943.73
2018-01-10T12:04:17.869Z,100940.14
2018-01-10T12:05:22.133Z,100951.57
2018-01-10T12:06:26.404Z,100940.95
2018-01-10T12:07:30.618Z,100949.41
2018-01-10T12:08:34.791Z,100941.43
2018-01-10T12:09:39.307Z,100944.92
2018-01-10T12:10:43.480Z,100942.21
2018-01-10T12:11:47.821Z,100938.16
2018-01-10T12:12:52.066Z,100942.55
2018-01-10T12:13:56.298Z,100939.47
2018-01-10T12:15:00.591Z,100939.93
2018-01-10T12:16:04.844Z,100931.94
2018-01-10T12:17:09.128Z,100935.48
2018-01-10T12:18:14.058Z,100930.59
2018-01-10T12:19:18.321Z,100938.89
2018-01-10T12:20:22.825Z,100933.55
2018-01-10T12:21:27.232Z,100933.58
2018-01-10T12:22:31.929Z,100936.20
2018-01-10T12:23:36.523Z,100937.50
2018-01-10T12:24:40.877Z,100934.83
2018-01-10T12:25:45.191Z,100935.27
2018-01-10T12:26:49.652Z,100937.57